Language selection

My Weather Profile Weather Topics  | 

North Channel: Past 24 Hour Conditions

 

Sault Ste. Marie Airport

10:00 AM EST 01 February 2023
Disclaimer

This table is a summary of hourly weather conditions for the past 24 hours.
Please note that these observations might not always be representative of weather conditions over their associated marine area.

Date / Time
(EST)
Wind(knots) Conditions Visibility(km) Pressure(kPa) Air tempC) Relative humidity(%) Dew pointC) Wind Chill
01 February 2023
10:00 SW 9 gust 15 Partly Cloudy 24 102.1 -12 69 -16 -19
9:00 SW 11 gust 17 Partly Cloudy 24 102.1 -14 71 -18 -23
8:00 S 5 Partly Cloudy 24 102.1 -15 74 -18 -20
7:00 SSE 3 Mostly Cloudy 24 102.0 -15 69 -20 -19
6:00 S 2 Mostly Cloudy 32 102.1 -15 68 -20 -18
5:00 SW 5 Mainly Clear 24 102.0 -15 64 -20 -20
4:00 SSW 3 Partly Cloudy 24 102.0 -14 63 -20 -18
3:00 SW 6 Mostly Cloudy 24 102.0 -13 61 -19 -20
2:00 SW 13 Mostly Cloudy 24 102.0 -13 59 -19 -22
1:00 SW 11 gust 18 Mostly Cloudy 32 102.0 -12 58 -19 -21
0:00 SW 10 gust 17 Mostly Cloudy 32 102.1 -12 57 -19 -21
31 January 2023
23:00 N 2 Mostly Cloudy 32 102.2 -14 59 -20 -16
22:00 SW 5 Mainly Clear 32 102.2 -13 55 -21 -19
21:00 WSW 12 gust 18 Mostly Cloudy 32 102.2 -11 67 -16 -20
20:00 SE 2 Light Snowshower 32 102.2 -12 79 -15 -14
19:00 SW 8 Light Snowshower 32 102.2 -10 66 -15 -16
18:00 SW 5 Light Snowshower 24 102.2 -10 79 -13 -15
17:00 SSW 8 gust 17 Drifting Snow 32 102.2 -9 65 -14 -15
16:00 SW 11 gust 21 Drifting Snow 32 102.3 -8 56 -15 -15
15:00 SW 9 Partly Cloudy 32 102.3 -8 58 -15 -15
14:00 SSW 9 gust 16 Partly Cloudy 32 102.4 -8 56 -15 -14
13:00 SW 9 gust 15 Mainly Sunny 32 102.6 -9 43 -19 -15
12:00 SW 6 Mainly Sunny 32 102.6 -10 44 -20 -16
11:00 SW 8 Mainly Sunny 32 102.7 -12 46 -21 -19
10:00 SSE 3 Mainly Sunny 32 102.7 -15 68 -20 -19

Zoom-in to make a selection

Map of Great Lakes - Lake Superior marine weather areas Mid Superior - 45001 East Superior - 45004 West Superior - 45006 Slate Island - 45136 Lake Of the Woods - 45148 Kenora Airport Royal Island Armstrong Airport Caribou Island Marathon Airport Pukaskwa National Park Thunder Bay Airport Welcome Island Little Flatland Island Sault Ste. Marie Airport Wawa Airport
Legend:
buoy Buoy
land station Land Station

Great Lakes - Lake Superior Area

Another Region

What we are doing

Date modified: